aviador You're here:

KVNC Decoded Metar

in
Report Time2017-09-25 20:15:00
UTC Time2017-09-25 20:29:00
Flight Rules vfr VFR
Wind260° at 08 kt
W.Decomp.*RWY 23: 6.9 kt HW 4.0 kt RCW
RWY 31: 5.1 kt HW 6.1 kt LCW
W.Rank260° ranks 25
Current wind is above 260° avg. (7.0)
Visibility9999 m
Phenomena:N/A
Clouds:N/A
Expected CloudBase > 2,400 ft AGL from Temp-Dew spread
CeilingNone
Temp31°C
Dew Point25°C (70% RH)
Heat Index37.6°C
QNH1011 hPa
Raw Report
METAR KVNC 252015Z AUTO 26008KT 10SM CLR 31/25 A2985 RMK AO2=

Extra information for KVNC:More info

Social comments